createdAt,value
2022-07-27T00:00:50.815Z,983.012
2022-07-27T00:02:51.863Z,982.983
2022-07-27T00:04:50.398Z,982.953
2022-07-27T00:06:49.953Z,982.949
2022-07-27T00:08:49.877Z,982.959
2022-07-27T00:10:50.751Z,982.970
2022-07-27T00:12:50.041Z,982.932
2022-07-27T00:14:50.068Z,982.926
2022-07-27T00:16:50.650Z,982.892
2022-07-27T00:18:50.767Z,982.891
2022-07-27T00:20:50.553Z,982.851
2022-07-27T00:22:50.545Z,982.859
2022-07-27T00:24:49.920Z,982.862
2022-07-27T00:26:50.114Z,982.885
2022-07-27T00:28:50.074Z,982.879
2022-07-27T00:30:50.159Z,982.852
2022-07-27T00:32:50.249Z,982.851
2022-07-27T00:34:50.794Z,982.833
2022-07-27T00:36:50.063Z,982.852
2022-07-27T00:38:50.101Z,982.842
2022-07-27T00:40:50.028Z,982.850
2022-07-27T00:42:49.918Z,982.845
2022-07-27T00:44:49.844Z,982.874
2022-07-27T00:46:50.556Z,982.933
2022-07-27T00:48:50.074Z,982.984
2022-07-27T00:50:50.141Z,983.026
2022-07-27T00:52:50.179Z,983.114
2022-07-27T00:54:50.413Z,983.096
2022-07-27T00:56:50.736Z,983.053
2022-07-27T00:58:50.779Z,983.047
2022-07-27T01:00:50.781Z,982.997
2022-07-27T01:02:51.344Z,983.001
2022-07-27T01:04:57.289Z,982.989
2022-07-27T01:06:50.444Z,983.019
2022-07-27T01:08:50.581Z,982.993
2022-07-27T01:10:50.892Z,983.003
2022-07-27T01:12:49.905Z,982.979
2022-07-27T01:14:49.862Z,982.955
2022-07-27T01:16:50.166Z,983.009
2022-07-27T01:18:50.175Z,983.016
2022-07-27T01:20:50.213Z,982.972
2022-07-27T01:22:50.126Z,982.972
2022-07-27T01:24:50.151Z,982.905
2022-07-27T01:26:50.319Z,982.907
2022-07-27T01:28:50.383Z,982.922
2022-07-27T01:30:51.060Z,982.930
2022-07-27T01:32:50.256Z,982.999
2022-07-27T01:34:50.458Z,982.979
2022-07-27T01:36:49.787Z,982.945
2022-07-27T01:38:50.672Z,982.989
2022-07-27T01:40:50.596Z,982.980
2022-07-27T01:42:50.678Z,983.003
2022-07-27T01:44:50.582Z,983.032
2022-07-27T01:46:51.051Z,983.076
2022-07-27T01:48:50.700Z,983.065
2022-07-27T01:50:49.995Z,983.101
2022-07-27T01:52:50.482Z,983.137
2022-07-27T01:54:50.537Z,983.070
2022-07-27T01:56:49.842Z,983.073
2022-07-27T01:58:49.849Z,983.014
2022-07-27T02:00:49.933Z,982.946
2022-07-27T02:02:49.937Z,982.973
2022-07-27T02:04:50.576Z,982.999
2022-07-27T02:06:49.941Z,982.896
2022-07-27T02:08:50.417Z,982.920
2022-07-27T02:10:50.457Z,982.874
2022-07-27T02:12:50.530Z,982.889
2022-07-27T02:14:50.097Z,982.838
2022-07-27T02:16:51.104Z,982.837
2022-07-27T02:18:50.615Z,982.856
2022-07-27T02:20:51.233Z,982.801
2022-07-27T02:22:50.189Z,982.801
2022-07-27T02:24:50.147Z,982.826
2022-07-27T02:26:50.506Z,982.801
2022-07-27T02:28:50.505Z,982.859
2022-07-27T02:30:50.660Z,982.754
2022-07-27T02:32:50.909Z,982.753
2022-07-27T02:34:50.479Z,982.682
2022-07-27T02:36:50.379Z,982.625
2022-07-27T02:38:50.318Z,982.631
2022-07-27T02:40:50.294Z,982.669
2022-07-27T02:42:50.365Z,982.666
2022-07-27T02:44:50.271Z,982.666
2022-07-27T02:46:50.437Z,982.558
2022-07-27T02:48:50.636Z,982.631
2022-07-27T02:50:49.975Z,982.565
2022-07-27T02:52:49.983Z,982.551
2022-07-27T02:54:49.959Z,982.601
2022-07-27T02:56:50.235Z,982.593
2022-07-27T02:58:50.293Z,982.620
2022-07-27T03:01:02.862Z,982.643
2022-07-27T03:02:50.320Z,982.655
2022-07-27T03:04:50.214Z,982.669
2022-07-27T03:06:50.710Z,982.689
2022-07-27T03:08:50.642Z,982.712
2022-07-27T03:10:50.570Z,982.716
2022-07-27T03:12:50.480Z,982.742
2022-07-27T03:14:50.653Z,982.709
2022-07-27T03:16:49.885Z,982.727
2022-07-27T03:18:50.243Z,982.761
2022-07-27T03:20:50.798Z,982.805
2022-07-27T03:22:50.030Z,982.802
2022-07-27T03:24:50.049Z,982.822
2022-07-27T03:26:50.275Z,982.875
2022-07-27T03:28:50.193Z,982.852
2022-07-27T03:30:50.306Z,982.911
2022-07-27T03:32:50.367Z,982.926
2022-07-27T03:34:50.713Z,982.979
2022-07-27T03:36:49.961Z,982.983
2022-07-27T03:38:49.893Z,982.943
2022-07-27T03:40:49.849Z,982.864
2022-07-27T03:42:49.896Z,982.879
2022-07-27T03:44:49.982Z,982.886
2022-07-27T03:46:50.089Z,982.937
2022-07-27T03:48:50.378Z,982.956
2022-07-27T03:50:50.386Z,983.037
2022-07-27T03:52:50.689Z,983.065
2022-07-27T03:54:50.694Z,983.045
2022-07-27T03:56:50.144Z,983.018
2022-07-27T03:58:50.044Z,983.018
2022-07-27T04:00:50.308Z,983.005
2022-07-27T04:02:50.790Z,983.033
2022-07-27T04:04:50.589Z,983.062
2022-07-27T04:06:49.945Z,983.052
2022-07-27T04:08:59.884Z,983.027
2022-07-27T04:10:50.464Z,983.045
2022-07-27T04:12:50.403Z,983.035
2022-07-27T04:14:50.434Z,983.051
2022-07-27T04:16:50.939Z,983.065
2022-07-27T04:18:50.270Z,983.101
2022-07-27T04:20:49.989Z,983.102
2022-07-27T04:22:50.792Z,983.093
2022-07-27T04:24:50.728Z,983.147
2022-07-27T04:26:50.121Z,983.145
2022-07-27T04:28:50.250Z,983.147
2022-07-27T04:30:50.394Z,983.210
2022-07-27T04:32:50.735Z,983.233
2022-07-27T04:34:49.976Z,983.227
2022-07-27T04:36:50.195Z,983.236
2022-07-27T04:38:50.207Z,983.291
2022-07-27T04:40:58.421Z,983.285
2022-07-27T04:42:50.327Z,983.293
2022-07-27T04:44:50.253Z,983.261
2022-07-27T04:46:50.473Z,983.291
2022-07-27T04:48:50.713Z,983.288
2022-07-27T04:50:50.023Z,983.354
2022-07-27T04:52:50.121Z,983.397
2022-07-27T04:54:50.262Z,983.363
2022-07-27T04:56:50.441Z,983.411
2022-07-27T04:58:50.523Z,983.417
2022-07-27T05:00:50.563Z,983.420
2022-07-27T05:02:50.029Z,983.441
2022-07-27T05:04:50.509Z,983.439
2022-07-27T05:06:49.866Z,983.439
2022-07-27T05:08:50.787Z,983.423
2022-07-27T05:10:50.228Z,983.357
2022-07-27T05:12:50.259Z,983.364
2022-07-27T05:14:50.282Z,983.323
2022-07-27T05:16:51.048Z,983.308
2022-07-27T05:18:50.355Z,983.323
2022-07-27T05:20:50.948Z,983.291
2022-07-27T05:22:49.940Z,983.300
2022-07-27T05:24:50.784Z,983.284
2022-07-27T05:26:49.905Z,983.289
2022-07-27T05:28:49.949Z,983.304
2022-07-27T05:30:49.927Z,983.322
2022-07-27T05:32:49.907Z,983.387
2022-07-27T05:34:50.271Z,983.445
2022-07-27T05:36:50.493Z,983.445
2022-07-27T05:38:50.330Z,983.514
2022-07-27T05:40:50.342Z,983.517
2022-07-27T05:42:50.294Z,983.513
2022-07-27T05:44:50.611Z,983.529
2022-07-27T05:46:49.799Z,983.477
2022-07-27T05:48:50.240Z,983.457
2022-07-27T05:50:50.345Z,983.514
2022-07-27T05:52:50.412Z,983.544
2022-07-27T05:54:50.798Z,983.569
2022-07-27T05:56:50.037Z,983.589
2022-07-27T05:58:49.961Z,983.594
2022-07-27T06:00:50.088Z,983.583
2022-07-27T06:02:50.287Z,983.568
2022-07-27T06:04:50.757Z,983.624
2022-07-27T06:06:49.940Z,983.597
2022-07-27T06:08:49.856Z,983.608
2022-07-27T06:10:50.007Z,983.608
2022-07-27T06:12:50.139Z,983.666
2022-07-27T06:14:51.709Z,983.684
2022-07-27T06:16:50.458Z,983.582
2022-07-27T06:18:50.747Z,983.606
2022-07-27T06:20:50.565Z,983.584
2022-07-27T06:22:50.763Z,983.619
2022-07-27T06:24:50.665Z,983.591
2022-07-27T06:26:49.972Z,983.592
2022-07-27T06:28:50.810Z,983.605
2022-07-27T06:30:50.078Z,983.638
2022-07-27T06:32:50.081Z,983.635
2022-07-27T06:34:50.727Z,983.674
2022-07-27T06:36:50.013Z,983.649
2022-07-27T06:38:50.420Z,983.639
2022-07-27T06:40:50.494Z,983.629
2022-07-27T06:42:50.376Z,983.666
2022-07-27T06:44:50.293Z,983.601
2022-07-27T06:46:50.760Z,983.581
2022-07-27T06:48:50.252Z,983.589
2022-07-27T06:50:50.270Z,983.656
2022-07-27T06:52:50.452Z,983.646
2022-07-27T06:54:50.248Z,983.643
2022-07-27T06:56:50.398Z,983.695
2022-07-27T06:58:50.323Z,983.691
2022-07-27T07:00:51.085Z,983.714
2022-07-27T07:02:50.444Z,983.752
2022-07-27T07:04:49.811Z,983.729
2022-07-27T07:06:49.974Z,983.700
2022-07-27T07:08:50.180Z,983.669
2022-07-27T07:10:50.080Z,983.664
2022-07-27T07:12:49.969Z,983.649
2022-07-27T07:14:50.798Z,983.665
2022-07-27T07:16:50.621Z,983.696
2022-07-27T07:18:52.966Z,983.680
2022-07-27T07:20:50.045Z,983.658
2022-07-27T07:22:50.273Z,983.683
2022-07-27T07:24:50.303Z,983.668
2022-07-27T07:26:50.788Z,983.696
2022-07-27T07:28:50.759Z,983.621
2022-07-27T07:30:50.533Z,983.609
2022-07-27T07:32:50.629Z,983.579
2022-07-27T07:34:50.095Z,983.587
2022-07-27T07:36:50.285Z,983.602
2022-07-27T07:38:50.157Z,983.579
2022-07-27T07:40:50.215Z,983.539
2022-07-27T07:42:50.273Z,983.535
2022-07-27T07:44:50.460Z,983.473
2022-07-27T07:46:50.078Z,983.518
2022-07-27T07:48:50.331Z,983.518
2022-07-27T07:50:54.202Z,983.512
2022-07-27T07:52:50.416Z,983.517
2022-07-27T07:54:50.421Z,983.497
2022-07-27T07:56:50.753Z,983.488
2022-07-27T07:58:49.823Z,983.516
2022-07-27T08:00:49.941Z,983.544
2022-07-27T08:02:50.226Z,983.559
2022-07-27T08:04:50.033Z,983.530
2022-07-27T08:06:49.880Z,983.495
2022-07-27T08:08:50.791Z,983.508
2022-07-27T08:10:50.067Z,983.479
2022-07-27T08:12:49.952Z,983.527
2022-07-27T08:14:49.977Z,983.514
2022-07-27T08:16:50.291Z,983.512
2022-07-27T08:18:50.306Z,983.512
2022-07-27T08:20:50.302Z,983.552
2022-07-27T08:22:50.277Z,983.601
2022-07-27T08:24:50.173Z,983.586
2022-07-27T08:26:50.687Z,983.568
2022-07-27T08:28:50.917Z,983.503
2022-07-27T08:30:49.950Z,983.561
2022-07-27T08:32:49.949Z,983.619
2022-07-27T08:34:50.258Z,983.530
2022-07-27T08:36:50.729Z,983.570
2022-07-27T08:38:50.666Z,983.583
2022-07-27T08:40:50.771Z,983.583
2022-07-27T08:42:52.090Z,983.576
2022-07-27T08:44:50.190Z,983.508
2022-07-27T08:46:50.832Z,983.543
2022-07-27T08:48:50.756Z,983.543
2022-07-27T08:50:50.096Z,983.525
2022-07-27T08:52:50.125Z,983.545
2022-07-27T08:54:50.403Z,983.547
2022-07-27T08:56:50.697Z,983.526
2022-07-27T08:58:50.744Z,983.554
2022-07-27T09:00:50.401Z,983.589
2022-07-27T09:02:50.779Z,983.522
2022-07-27T09:04:50.278Z,983.527
2022-07-27T09:06:54.670Z,983.662
2022-07-27T09:08:53.704Z,983.541
2022-07-27T09:10:50.814Z,983.597
2022-07-27T09:12:50.671Z,983.569
2022-07-27T09:14:53.625Z,983.575
2022-07-27T09:17:47.112Z,983.643
2022-07-27T09:18:50.603Z,983.573
2022-07-27T09:20:50.827Z,983.601
2022-07-27T09:22:49.878Z,983.698
2022-07-27T09:24:50.726Z,983.702
2022-07-27T09:26:49.949Z,983.666
2022-07-27T09:28:50.388Z,983.636
2022-07-27T09:30:50.710Z,983.605
2022-07-27T09:32:53.244Z,983.605
2022-07-27T09:34:49.814Z,983.668
2022-07-27T09:36:50.162Z,983.668
2022-07-27T09:39:02.669Z,983.668
2022-07-27T09:40:50.431Z,983.700
2022-07-27T09:43:32.057Z,983.718
2022-07-27T09:44:57.161Z,983.708
2022-07-27T09:46:50.237Z,983.674
2022-07-27T09:48:50.785Z,983.661
2022-07-27T09:51:05.485Z,983.653
2022-07-27T09:52:49.812Z,983.690
2022-07-27T09:54:50.781Z,983.744
2022-07-27T09:56:50.305Z,983.744
2022-07-27T09:58:50.198Z,983.775
2022-07-27T10:00:50.395Z,983.746
2022-07-27T10:02:50.556Z,983.746
2022-07-27T10:14:50.554Z,983.790
2022-07-27T10:16:49.884Z,983.792
2022-07-27T10:18:56.238Z,983.737
2022-07-27T10:20:50.246Z,983.737
2022-07-27T10:22:50.499Z,983.744
2022-07-27T10:24:53.540Z,983.790
2022-07-27T10:26:50.132Z,983.862
2022-07-27T10:28:50.207Z,983.741
2022-07-27T10:30:55.109Z,983.764
2022-07-27T10:32:50.435Z,983.718
2022-07-27T10:34:49.994Z,983.772
2022-07-27T10:36:50.349Z,983.849
2022-07-27T10:38:50.597Z,983.881
2022-07-27T10:40:50.560Z,983.844
2022-07-27T10:42:55.064Z,983.825
2022-07-27T10:44:50.192Z,983.799
2022-07-27T10:46:50.917Z,983.802
2022-07-27T10:48:50.636Z,983.950
2022-07-27T10:50:50.026Z,983.925
2022-07-27T10:52:50.129Z,983.973
2022-07-27T10:55:00.397Z,983.913
2022-07-27T10:56:50.767Z,983.901
2022-07-27T10:58:50.805Z,983.901
2022-07-27T11:00:55.879Z,983.901
2022-07-27T11:02:50.127Z,983.846
2022-07-27T11:04:50.200Z,983.780
2022-07-27T11:07:26.785Z,983.791
2022-07-27T11:10:50.047Z,983.868
2022-07-27T11:12:50.098Z,983.832
2022-07-27T11:14:50.329Z,983.827
2022-07-27T11:17:33.422Z,983.887
2022-07-27T11:18:54.115Z,983.874
2022-07-27T11:20:50.479Z,983.870
2022-07-27T11:24:50.624Z,983.831
2022-07-27T11:26:50.174Z,983.882
2022-07-27T11:28:50.478Z,983.811
2022-07-27T11:30:50.954Z,983.752
2022-07-27T11:32:50.810Z,983.787
2022-07-27T11:34:50.349Z,983.825
2022-07-27T11:36:49.942Z,983.839
2022-07-27T11:38:49.956Z,983.711
2022-07-27T11:41:24.066Z,983.746
2022-07-27T11:42:51.243Z,983.683
2022-07-27T11:44:51.448Z,983.818
2022-07-27T11:46:49.968Z,983.758
2022-07-27T11:49:08.894Z,983.795
2022-07-27T11:50:50.339Z,983.787
2022-07-27T11:52:50.332Z,983.737
2022-07-27T11:54:50.401Z,983.731
2022-07-27T11:56:50.692Z,983.767
2022-07-27T11:58:49.883Z,983.755
2022-07-27T12:00:50.692Z,983.784
2022-07-27T12:02:50.925Z,983.809
2022-07-27T12:04:50.336Z,983.837
2022-07-27T12:06:49.958Z,983.759
2022-07-27T12:08:49.891Z,983.746
2022-07-27T12:10:50.104Z,983.746
2022-07-27T12:12:50.062Z,983.812
2022-07-27T12:14:50.048Z,983.776
2022-07-27T12:16:50.135Z,983.812
2022-07-27T12:18:50.199Z,983.798
2022-07-27T12:20:50.245Z,983.850
2022-07-27T12:22:50.354Z,983.780
2022-07-27T12:24:50.485Z,983.780
2022-07-27T12:26:50.571Z,983.790
2022-07-27T12:28:50.694Z,983.767
2022-07-27T12:30:50.893Z,983.771
2022-07-27T12:32:55.969Z,983.779
2022-07-27T12:34:49.965Z,983.914
2022-07-27T12:36:50.433Z,983.824
2022-07-27T12:38:50.504Z,983.823
2022-07-27T12:40:50.815Z,983.867
2022-07-27T12:42:49.923Z,983.829
2022-07-27T12:44:50.097Z,983.842
2022-07-27T12:46:50.516Z,983.733
2022-07-27T12:48:50.619Z,983.794
2022-07-27T12:50:49.933Z,983.705
2022-07-27T12:52:50.032Z,983.788
2022-07-27T12:54:50.006Z,983.721
2022-07-27T12:56:50.499Z,983.715
2022-07-27T12:58:50.647Z,983.715
2022-07-27T13:00:50.198Z,983.719
2022-07-27T13:02:50.778Z,983.680
2022-07-27T13:04:50.518Z,983.656
2022-07-27T13:06:50.012Z,983.702
2022-07-27T13:08:49.987Z,983.628
2022-07-27T13:10:50.153Z,983.687
2022-07-27T13:12:50.354Z,983.687
2022-07-27T13:14:50.268Z,983.584
2022-07-27T13:16:51.044Z,983.633
2022-07-27T13:18:50.564Z,983.565
2022-07-27T13:20:50.526Z,983.611
2022-07-27T13:22:50.661Z,983.533
2022-07-27T13:24:50.495Z,983.495
2022-07-27T13:26:50.799Z,983.457
2022-07-27T13:28:51.691Z,983.456
2022-07-27T13:30:50.619Z,983.456
2022-07-27T13:32:50.623Z,983.542
2022-07-27T13:34:50.069Z,983.542
2022-07-27T13:36:50.467Z,983.543
2022-07-27T13:38:50.460Z,983.520
2022-07-27T13:40:50.389Z,983.516
2022-07-27T13:42:50.454Z,983.536
2022-07-27T13:45:11.092Z,983.503
2022-07-27T13:46:51.590Z,983.484
2022-07-27T13:48:50.621Z,983.494
2022-07-27T13:50:49.921Z,983.507
2022-07-27T13:52:49.924Z,983.479
2022-07-27T13:54:50.686Z,983.484
2022-07-27T13:56:50.040Z,983.487
2022-07-27T13:58:50.040Z,983.497
2022-07-27T14:00:50.297Z,983.528
2022-07-27T14:02:50.611Z,983.547
2022-07-27T14:04:50.534Z,983.458
2022-07-27T14:06:50.281Z,983.459
2022-07-27T14:08:50.264Z,983.430
2022-07-27T14:10:51.632Z,983.425
2022-07-27T14:12:59.090Z,983.425
2022-07-27T14:14:50.270Z,983.388
2022-07-27T14:16:50.866Z,983.436
2022-07-27T14:18:50.175Z,983.455
2022-07-27T14:20:50.156Z,983.419
2022-07-27T14:22:50.214Z,983.481
2022-07-27T14:24:50.081Z,983.422
2022-07-27T14:26:50.380Z,983.412
2022-07-27T14:28:50.487Z,983.427
2022-07-27T14:30:50.789Z,983.419
2022-07-27T14:32:49.902Z,983.473
2022-07-27T14:34:50.476Z,983.398
2022-07-27T14:36:50.716Z,983.387
2022-07-27T14:38:50.778Z,983.417
2022-07-27T14:40:50.209Z,983.425
2022-07-27T14:42:50.333Z,983.455
2022-07-27T14:44:50.370Z,983.453
2022-07-27T14:46:50.169Z,983.413
2022-07-27T14:49:07.025Z,983.447
2022-07-27T14:50:50.514Z,983.422
2022-07-27T14:52:50.596Z,983.387
2022-07-27T14:54:49.921Z,983.372
2022-07-27T14:56:50.519Z,983.336
2022-07-27T14:58:49.917Z,983.307
2022-07-27T15:00:50.185Z,983.271
2022-07-27T15:02:50.686Z,983.266
2022-07-27T15:04:50.352Z,983.296
2022-07-27T15:06:50.645Z,983.326
2022-07-27T15:08:49.830Z,983.339
2022-07-27T15:10:49.850Z,983.297
2022-07-27T15:12:49.937Z,983.289
2022-07-27T15:14:50.033Z,983.196
2022-07-27T15:16:50.250Z,983.181
2022-07-27T15:18:50.655Z,983.163
2022-07-27T15:20:49.905Z,983.183
2022-07-27T15:22:49.998Z,983.212
2022-07-27T15:24:50.234Z,983.202
2022-07-27T15:26:50.794Z,983.229
2022-07-27T15:28:49.983Z,983.281
2022-07-27T15:30:50.328Z,983.198
2022-07-27T15:32:50.550Z,983.144
2022-07-27T15:34:50.369Z,983.160
2022-07-27T15:36:52.632Z,983.117
2022-07-27T15:38:49.827Z,983.138
2022-07-27T15:40:50.055Z,983.127
2022-07-27T15:42:50.240Z,983.107
2022-07-27T15:44:50.311Z,983.121
2022-07-27T15:46:50.116Z,983.152
2022-07-27T15:48:50.576Z,983.131
2022-07-27T15:50:49.891Z,983.120
2022-07-27T15:52:49.898Z,983.143
2022-07-27T15:54:49.822Z,983.155
2022-07-27T15:56:50.244Z,983.137
2022-07-27T15:58:50.512Z,983.115
2022-07-27T16:00:50.870Z,983.136
2022-07-27T16:02:50.795Z,983.159
2022-07-27T16:04:50.400Z,983.125
2022-07-27T16:06:49.967Z,983.158
2022-07-27T16:08:50.286Z,983.117
2022-07-27T16:10:50.373Z,983.106
2022-07-27T16:12:50.526Z,983.136
2022-07-27T16:14:50.630Z,983.107
2022-07-27T16:16:50.367Z,983.149
2022-07-27T16:18:50.532Z,983.141
2022-07-27T16:20:50.559Z,983.080
2022-07-27T16:22:49.863Z,983.031
2022-07-27T16:24:50.099Z,983.137
2022-07-27T16:26:49.883Z,983.035
2022-07-27T16:28:50.316Z,983.025
2022-07-27T16:30:50.810Z,982.997
2022-07-27T16:32:49.918Z,983.052
2022-07-27T16:34:50.461Z,983.048
2022-07-27T16:36:50.027Z,983.052
2022-07-27T16:38:50.917Z,982.999
2022-07-27T16:40:50.028Z,982.994
2022-07-27T16:42:50.269Z,982.981
2022-07-27T16:44:50.318Z,982.944
2022-07-27T16:46:50.837Z,983.005
2022-07-27T16:48:50.550Z,982.978
2022-07-27T16:50:50.768Z,982.982
2022-07-27T16:52:50.151Z,983.004
2022-07-27T16:54:50.220Z,983.019
2022-07-27T16:56:50.774Z,982.980
2022-07-27T16:58:49.983Z,982.959
2022-07-27T17:00:49.999Z,982.967
2022-07-27T17:02:50.134Z,982.936
2022-07-27T17:04:50.080Z,982.987
2022-07-27T17:06:50.656Z,983.022
2022-07-27T17:08:50.545Z,983.012
2022-07-27T17:10:51.525Z,983.063
2022-07-27T17:12:51.621Z,983.117
2022-07-27T17:14:50.553Z,983.045
2022-07-27T17:16:52.665Z,983.108
2022-07-27T17:18:50.674Z,983.062
2022-07-27T17:20:50.708Z,983.097
2022-07-27T17:22:51.130Z,983.031
2022-07-27T17:24:49.922Z,983.051
2022-07-27T17:26:50.260Z,983.058
2022-07-27T17:28:50.458Z,983.093
2022-07-27T17:30:50.640Z,983.084
2022-07-27T17:32:50.633Z,983.083
2022-07-27T17:34:50.123Z,983.087
2022-07-27T17:36:50.559Z,983.087
2022-07-27T17:38:50.563Z,983.058
2022-07-27T17:40:50.629Z,983.050
2022-07-27T17:42:50.849Z,983.079
2022-07-27T17:44:49.816Z,983.056
2022-07-27T17:46:50.523Z,983.075
2022-07-27T17:48:50.746Z,983.059
2022-07-27T17:50:50.214Z,983.090
2022-07-27T17:52:50.139Z,983.082
2022-07-27T17:54:50.151Z,983.067
2022-07-27T17:56:50.368Z,983.044
2022-07-27T17:58:49.799Z,983.093
2022-07-27T18:00:50.642Z,983.066
2022-07-27T18:02:50.541Z,983.100
2022-07-27T18:04:50.114Z,983.072
2022-07-27T18:06:50.467Z,983.082
2022-07-27T18:08:50.298Z,983.097
2022-07-27T18:10:50.146Z,983.144
2022-07-27T18:12:50.033Z,983.130
2022-07-27T18:14:51.407Z,983.170
2022-07-27T18:16:49.812Z,983.142
2022-07-27T18:18:50.733Z,983.155
2022-07-27T18:20:50.736Z,983.145
2022-07-27T18:22:50.561Z,983.178
2022-07-27T18:24:50.366Z,983.156
2022-07-27T18:26:51.578Z,983.199
2022-07-27T18:28:50.488Z,983.229
2022-07-27T18:30:50.658Z,983.255
2022-07-27T18:32:50.592Z,983.281
2022-07-27T18:34:50.287Z,983.286
2022-07-27T18:36:50.661Z,983.318
2022-07-27T18:38:49.850Z,983.344
2022-07-27T18:40:49.936Z,983.335
2022-07-27T18:42:49.839Z,983.373
2022-07-27T18:44:50.704Z,983.398
2022-07-27T18:46:49.949Z,983.422
2022-07-27T18:48:50.949Z,983.464
2022-07-27T18:50:49.967Z,983.429
2022-07-27T18:52:50.729Z,983.468
2022-07-27T18:54:50.660Z,983.445
2022-07-27T18:56:50.076Z,983.479
2022-07-27T18:58:49.823Z,983.524
2022-07-27T19:00:52.303Z,983.524
2022-07-27T19:02:58.462Z,983.676
2022-07-27T19:04:50.417Z,983.654
2022-07-27T19:06:50.637Z,983.691
2022-07-27T19:08:50.276Z,983.678
2022-07-27T19:10:50.095Z,983.678
2022-07-27T19:12:50.025Z,983.728
2022-07-27T19:14:51.374Z,983.739
2022-07-27T19:16:50.825Z,983.752
2022-07-27T19:18:50.317Z,983.786
2022-07-27T19:20:50.096Z,983.810
2022-07-27T19:22:50.312Z,983.865
2022-07-27T19:24:55.376Z,983.889
2022-07-27T19:26:50.515Z,983.944
2022-07-27T19:28:50.557Z,983.944
2022-07-27T19:30:51.434Z,983.996
2022-07-27T19:32:50.681Z,984.001
2022-07-27T19:34:50.085Z,984.041
2022-07-27T19:36:50.483Z,984.033
2022-07-27T19:38:50.438Z,984.053
2022-07-27T19:40:50.647Z,984.022
2022-07-27T19:42:50.586Z,984.053
2022-07-27T19:44:50.437Z,984.047
2022-07-27T19:46:50.701Z,984.084
2022-07-27T19:48:50.832Z,984.075
2022-07-27T19:50:50.098Z,984.070
2022-07-27T19:52:49.959Z,984.110
2022-07-27T19:54:49.971Z,984.101
2022-07-27T19:56:50.151Z,984.110
2022-07-27T19:58:50.198Z,984.141
2022-07-27T20:00:49.944Z,984.141
2022-07-27T20:02:50.395Z,984.158
2022-07-27T20:04:49.936Z,984.181
2022-07-27T20:06:50.419Z,984.218
2022-07-27T20:08:50.320Z,984.220
2022-07-27T20:10:50.116Z,984.233
2022-07-27T20:12:50.090Z,984.274
2022-07-27T20:14:50.040Z,984.338
2022-07-27T20:16:50.412Z,984.359
2022-07-27T20:18:50.686Z,984.371
2022-07-27T20:20:50.069Z,984.361
2022-07-27T20:22:49.947Z,984.371
2022-07-27T20:24:50.258Z,984.320
2022-07-27T20:26:50.412Z,984.310
2022-07-27T20:28:50.672Z,984.361
2022-07-27T20:30:50.804Z,984.361
2022-07-27T20:32:50.326Z,984.324
2022-07-27T20:34:50.443Z,984.327
2022-07-27T20:36:49.815Z,984.330
2022-07-27T20:38:50.739Z,984.339
2022-07-27T20:40:50.791Z,984.340
2022-07-27T20:42:50.721Z,984.380
2022-07-27T20:44:50.751Z,984.405
2022-07-27T20:46:49.984Z,984.431
2022-07-27T20:48:50.334Z,984.409
2022-07-27T20:50:51.981Z,984.395
2022-07-27T20:52:50.056Z,984.395
2022-07-27T20:54:50.028Z,984.403
2022-07-27T20:56:50.429Z,984.411
2022-07-27T20:58:50.274Z,984.389
2022-07-27T21:00:50.568Z,984.375
2022-07-27T21:02:51.247Z,984.390
2022-07-27T21:04:49.896Z,984.393
2022-07-27T21:06:50.187Z,984.423
2022-07-27T21:08:50.282Z,984.446
2022-07-27T21:10:50.802Z,984.463
2022-07-27T21:12:49.802Z,984.502
2022-07-27T21:14:50.731Z,984.482
2022-07-27T21:16:50.406Z,984.489
2022-07-27T21:18:50.466Z,984.499
2022-07-27T21:20:50.367Z,984.547
2022-07-27T21:22:50.473Z,984.531
2022-07-27T21:24:50.287Z,984.530
2022-07-27T21:26:50.467Z,984.549
2022-07-27T21:28:50.737Z,984.525
2022-07-27T21:30:49.831Z,984.538
2022-07-27T21:32:50.959Z,984.538
2022-07-27T21:34:50.724Z,984.609
2022-07-27T21:36:49.876Z,984.638
2022-07-27T21:38:50.786Z,984.623
2022-07-27T21:40:49.953Z,984.645
2022-07-27T21:42:49.950Z,984.649
2022-07-27T21:44:49.929Z,984.641
2022-07-27T21:46:50.096Z,984.644
2022-07-27T21:48:50.202Z,984.650
2022-07-27T21:50:50.251Z,984.637
2022-07-27T21:52:50.403Z,984.693
2022-07-27T21:54:50.365Z,984.738
2022-07-27T21:56:51.025Z,984.755
2022-07-27T21:58:49.965Z,984.801
2022-07-27T22:00:50.371Z,984.762
2022-07-27T22:02:50.451Z,984.788
2022-07-27T22:04:50.810Z,984.788
2022-07-27T22:06:49.971Z,984.788
2022-07-27T22:14:50.800Z,984.824
2022-07-27T22:16:50.212Z,984.809
2022-07-27T22:18:50.446Z,984.801
2022-07-27T22:20:50.431Z,984.758
2022-07-27T22:22:50.427Z,984.732
2022-07-27T22:24:50.562Z,984.759
2022-07-27T22:26:49.807Z,984.795
2022-07-27T22:28:49.876Z,984.808
2022-07-27T22:31:20.258Z,984.792
2022-07-27T22:32:50.393Z,984.808
2022-07-27T22:34:50.682Z,984.808
2022-07-27T22:36:50.079Z,984.770
2022-07-27T22:38:49.874Z,984.768
2022-07-27T22:40:50.810Z,984.776
2022-07-27T22:42:50.787Z,984.821
2022-07-27T22:44:50.466Z,984.782
2022-07-27T22:46:50.714Z,984.784
2022-07-27T22:48:50.820Z,984.740
2022-07-27T22:50:50.034Z,984.721
2022-07-27T22:52:49.900Z,984.702
2022-07-27T22:54:49.807Z,984.739
2022-07-27T22:56:50.094Z,984.713
2022-07-27T22:58:50.055Z,984.641
2022-07-27T23:00:50.107Z,984.640
2022-07-27T23:02:50.498Z,984.716
2022-07-27T23:04:50.144Z,984.770
2022-07-27T23:06:50.599Z,984.758
2022-07-27T23:08:50.463Z,984.777
2022-07-27T23:10:50.489Z,984.808
2022-07-27T23:12:50.428Z,984.808
2022-07-27T23:14:50.412Z,984.772
2022-07-27T23:16:50.767Z,984.779
2022-07-27T23:18:50.734Z,984.787
2022-07-27T23:20:49.878Z,984.817
2022-07-27T23:22:51.198Z,984.759
2022-07-27T23:24:51.947Z,984.741
2022-07-27T23:26:50.123Z,984.727
2022-07-27T23:28:50.237Z,984.742
2022-07-27T23:30:50.044Z,984.730
2022-07-27T23:32:50.060Z,984.704
2022-07-27T23:34:50.546Z,984.712
2022-07-27T23:36:50.627Z,984.760
2022-07-27T23:38:50.567Z,984.794
2022-07-27T23:40:50.523Z,984.790
2022-07-27T23:42:50.501Z,984.790
2022-07-27T23:44:53.103Z,984.758
2022-07-27T23:46:50.736Z,984.804
2022-07-27T23:48:50.024Z,984.797
2022-07-27T23:50:50.249Z,984.830
2022-07-27T23:52:50.212Z,984.756
2022-07-27T23:54:50.105Z,984.768
2022-07-27T23:56:50.211Z,984.728
2022-07-27T23:58:50.089Z,984.727
